createdAt,value
2022-10-05T00:00:48.648Z,101319.16
2022-10-05T00:03:18.425Z,101325.16
2022-10-05T00:05:49.011Z,101319.63
2022-10-05T00:08:24.312Z,101314.13
2022-10-05T00:10:56.950Z,101315.31
2022-10-05T00:13:28.991Z,101322.84
2022-10-05T00:16:02.477Z,101312.16
2022-10-05T00:18:32.291Z,101310.69
2022-10-05T00:21:02.815Z,101307.00
2022-10-05T00:23:35.446Z,101307.00
2022-10-05T00:26:14.624Z,101298.31
2022-10-05T00:28:44.533Z,101302.19
2022-10-05T00:31:19.515Z,101314.25
2022-10-05T00:33:49.779Z,101307.72
2022-10-05T00:36:20.093Z,101302.53
2022-10-05T00:38:50.144Z,101315.25
2022-10-05T00:41:27.491Z,101305.38
2022-10-05T00:44:27.132Z,101309.91
2022-10-05T00:47:00.104Z,101304.91
2022-10-05T00:49:48.620Z,101303.59
2022-10-05T00:52:28.231Z,101311.81
2022-10-05T00:55:08.633Z,101306.63
2022-10-05T00:57:53.777Z,101290.13
2022-10-05T01:00:27.647Z,101281.75
2022-10-05T01:03:06.798Z,101288.75
2022-10-05T01:05:51.626Z,101282.75
2022-10-05T01:08:32.440Z,101288.28
2022-10-05T01:11:10.422Z,101281.09
2022-10-05T01:13:52.304Z,101275.75
2022-10-05T01:16:30.547Z,101266.56
2022-10-05T01:19:09.240Z,101275.78
2022-10-05T01:21:46.220Z,101279.09
2022-10-05T01:24:47.705Z,101288.78
2022-10-05T01:27:41.052Z,101270.44
2022-10-05T01:30:14.870Z,101279.47
2022-10-05T01:32:51.477Z,101266.47
2022-10-05T01:35:33.638Z,101252.25
2022-10-05T01:38:15.438Z,101253.44
2022-10-05T01:40:57.853Z,101259.81
2022-10-05T01:43:35.940Z,101269.00
2022-10-05T01:46:13.120Z,101269.00
2022-10-05T01:48:54.845Z,101271.03
2022-10-05T01:51:30.508Z,101267.03
2022-10-05T01:54:08.492Z,101263.53
2022-10-05T01:56:46.156Z,101259.88
2022-10-05T01:59:32.328Z,101261.69
2022-10-05T02:02:06.075Z,101259.50
2022-10-05T02:05:01.474Z,101268.72
2022-10-05T02:07:39.322Z,101267.22
2022-10-05T02:10:17.662Z,101266.56
2022-10-05T02:12:51.783Z,101272.09
2022-10-05T02:15:29.327Z,101275.94
2022-10-05T02:18:05.542Z,101280.81
2022-10-05T02:20:40.332Z,101280.97
2022-10-05T02:23:17.285Z,101277.63
2022-10-05T02:25:50.358Z,101288.66
2022-10-05T02:28:26.255Z,101278.81
2022-10-05T02:31:04.657Z,101278.97
2022-10-05T02:33:36.280Z,101275.66
2022-10-05T02:36:17.617Z,101273.16
2022-10-05T02:39:05.519Z,101274.34
2022-10-05T02:41:48.978Z,101270.53
2022-10-05T02:44:29.776Z,101266.88
2022-10-05T02:47:11.697Z,101270.53
2022-10-05T02:49:47.540Z,101270.53
2022-10-05T02:52:23.089Z,101271.38
2022-10-05T02:55:01.415Z,101272.91
2022-10-05T02:57:34.583Z,101267.06
2022-10-05T03:00:11.019Z,101270.75
2022-10-05T03:02:48.395Z,101270.75
2022-10-05T03:05:24.829Z,101271.41
2022-10-05T03:08:03.335Z,101260.94
2022-10-05T03:10:43.743Z,101263.94
2022-10-05T03:13:24.237Z,101257.41
2022-10-05T03:16:08.992Z,101251.41
2022-10-05T03:18:52.859Z,101257.59
2022-10-05T03:21:34.611Z,101252.06
2022-10-05T03:24:20.310Z,101255.75
2022-10-05T03:27:01.961Z,101256.56
2022-10-05T03:29:41.903Z,101250.22
2022-10-05T03:32:25.555Z,101241.22
2022-10-05T03:35:06.358Z,101237.53
2022-10-05T03:37:49.441Z,101239.22
2022-10-05T03:40:29.625Z,101235.53
2022-10-05T03:43:09.128Z,101230.72
2022-10-05T03:45:48.238Z,101233.22
2022-10-05T03:48:22.739Z,101229.03
2022-10-05T03:51:04.535Z,101224.03
2022-10-05T03:53:42.155Z,101222.53
2022-10-05T03:56:17.467Z,101228.88
2022-10-05T03:58:56.461Z,101221.88
2022-10-05T04:01:34.537Z,101217.53
2022-10-05T04:04:10.021Z,101212.38
2022-10-05T04:06:49.508Z,101202.22
2022-10-05T04:09:25.583Z,101208.06
2022-10-05T04:12:05.197Z,101207.88
2022-10-05T04:14:41.452Z,101208.22
2022-10-05T04:17:15.138Z,101214.09
2022-10-05T04:19:48.463Z,101211.41
2022-10-05T04:22:25.497Z,101216.09
2022-10-05T04:25:01.422Z,101209.94
2022-10-05T04:27:39.288Z,101208.78
2022-10-05T04:30:15.411Z,101214.28
2022-10-05T04:32:48.222Z,101212.81
2022-10-05T04:35:43.299Z,101209.31
2022-10-05T04:38:29.671Z,101203.28
2022-10-05T04:41:15.614Z,101208.91
2022-10-05T04:43:58.726Z,101212.59
2022-10-05T04:46:41.030Z,101207.09
2022-10-05T04:49:36.475Z,101205.91
2022-10-05T04:52:15.107Z,101206.91
2022-10-05T04:55:03.518Z,101208.75
2022-10-05T04:57:43.290Z,101203.59
2022-10-05T05:00:24.576Z,101206.09
2022-10-05T05:03:23.912Z,101212.91
2022-10-05T05:06:18.391Z,101219.06
2022-10-05T05:09:30.202Z,101220.56
2022-10-05T05:12:19.323Z,101210.53
2022-10-05T05:15:09.866Z,101214.22
2022-10-05T05:17:54.795Z,101210.25
2022-10-05T05:20:36.687Z,101204.75
2022-10-05T05:23:14.841Z,101209.75
2022-10-05T05:25:50.622Z,101209.59
2022-10-05T05:28:31.491Z,101211.25
2022-10-05T05:31:08.415Z,101206.56
2022-10-05T05:33:51.680Z,101213.56
2022-10-05T05:36:44.995Z,101207.03
2022-10-05T05:39:30.563Z,101210.53
2022-10-05T05:42:10.461Z,101199.53
2022-10-05T05:44:49.180Z,101198.03
2022-10-05T05:47:23.297Z,101192.22
2022-10-05T05:50:08.561Z,101182.59
2022-10-05T05:52:44.473Z,101186.44
2022-10-05T05:55:29.050Z,101190.28
2022-10-05T05:58:06.779Z,101193.59
2022-10-05T06:00:45.518Z,101197.44
2022-10-05T06:03:22.000Z,101192.94
2022-10-05T06:05:56.757Z,101192.59
2022-10-05T06:08:35.925Z,101198.41
2022-10-05T06:11:20.851Z,101204.06
2022-10-05T06:13:51.044Z,101196.91
2022-10-05T06:16:28.335Z,101191.72
2022-10-05T06:19:01.320Z,101196.72
2022-10-05T06:21:38.488Z,101206.53
2022-10-05T06:24:18.464Z,101206.34
2022-10-05T06:27:15.565Z,101204.66
2022-10-05T06:30:01.657Z,101200.00
2022-10-05T06:32:41.027Z,101208.47
2022-10-05T06:35:20.750Z,101207.94
2022-10-05T06:38:10.554Z,101216.44
2022-10-05T06:40:59.231Z,101219.22
2022-10-05T06:43:44.198Z,101216.91
2022-10-05T06:46:33.402Z,101216.25
2022-10-05T06:49:28.311Z,101214.06
2022-10-05T06:52:22.498Z,101219.41
2022-10-05T06:55:11.843Z,101215.03
2022-10-05T06:57:56.377Z,101224.72
2022-10-05T07:00:32.725Z,101227.56
2022-10-05T07:03:11.338Z,101231.72
2022-10-05T07:06:09.027Z,101225.72
2022-10-05T07:09:04.549Z,101224.34
2022-10-05T07:11:57.305Z,101226.50
2022-10-05T07:14:46.085Z,101216.47
2022-10-05T07:17:37.363Z,101217.59
2022-10-05T07:20:18.536Z,101216.03
2022-10-05T07:23:04.489Z,101210.16
2022-10-05T07:25:39.777Z,101221.03
2022-10-05T07:28:12.648Z,101232.00
2022-10-05T07:30:50.905Z,101231.84
2022-10-05T07:33:26.842Z,101224.97
2022-10-05T07:36:18.257Z,101221.75
2022-10-05T07:38:58.859Z,101217.06
2022-10-05T07:41:40.222Z,101215.19
2022-10-05T07:44:18.712Z,101217.50
2022-10-05T07:46:56.807Z,101208.97
2022-10-05T07:49:38.809Z,101215.75
2022-10-05T07:52:15.227Z,101206.69
2022-10-05T07:55:02.449Z,101221.06
2022-10-05T07:57:42.112Z,101235.28
2022-10-05T08:00:20.750Z,101226.50
2022-10-05T08:02:55.536Z,101222.38
2022-10-05T08:05:29.622Z,101211.47
2022-10-05T08:08:09.347Z,101223.00
2022-10-05T08:10:46.352Z,101222.75
2022-10-05T08:13:22.644Z,101217.66
2022-10-05T08:15:56.442Z,101224.50
2022-10-05T08:18:40.720Z,101215.44
2022-10-05T08:21:13.954Z,101204.09
2022-10-05T08:23:50.038Z,101195.06
2022-10-05T08:26:30.892Z,101174.84
2022-10-05T08:29:13.929Z,101184.56
2022-10-05T08:31:47.281Z,101182.25
2022-10-05T08:34:25.918Z,101183.16
2022-10-05T08:37:05.124Z,101187.50
2022-10-05T08:39:43.990Z,101178.44
2022-10-05T08:42:49.433Z,101176.03
2022-10-05T08:45:43.725Z,101169.72
2022-10-05T08:48:29.280Z,101165.38
2022-10-05T08:51:28.282Z,101164.25
2022-10-05T08:54:29.502Z,101165.38
2022-10-05T08:57:24.676Z,101161.47
2022-10-05T09:00:07.907Z,101164.25
2022-10-05T09:03:02.496Z,101153.59
2022-10-05T09:06:07.431Z,101158.13
2022-10-05T09:09:07.460Z,101158.44
2022-10-05T09:11:39.099Z,101164.03
2022-10-05T09:14:31.039Z,101159.13
2022-10-05T09:17:13.769Z,101162.16
2022-10-05T09:20:09.194Z,101157.16
2022-10-05T09:22:47.585Z,101148.88
2022-10-05T09:25:24.937Z,101153.72
2022-10-05T09:27:59.416Z,101151.22
2022-10-05T09:30:43.644Z,101142.16
2022-10-05T09:33:43.507Z,101149.44
2022-10-05T09:36:41.730Z,101144.34
2022-10-05T09:39:31.864Z,101132.22
2022-10-05T09:42:38.021Z,101125.34
2022-10-05T09:45:31.262Z,101125.97
2022-10-05T09:48:36.566Z,101130.94
2022-10-05T09:51:29.202Z,101132.84
2022-10-05T09:54:31.529Z,101129.16
2022-10-05T09:57:28.140Z,101129.09
2022-10-05T10:00:20.944Z,101133.16
2022-10-05T10:03:18.627Z,101129.59
2022-10-05T10:06:12.818Z,101116.63
2022-10-05T10:09:05.161Z,101120.66
2022-10-05T10:11:47.086Z,101127.66
2022-10-05T10:14:52.336Z,101120.34
2022-10-05T10:17:57.967Z,101121.59
2022-10-05T10:20:39.099Z,101117.91
2022-10-05T10:23:32.337Z,101115.25
2022-10-05T10:26:45.022Z,101114.22
2022-10-05T10:29:40.471Z,101114.31
2022-10-05T10:32:22.088Z,101117.00
2022-10-05T10:35:22.787Z,101114.81
2022-10-05T10:38:28.713Z,101130.81
2022-10-05T10:41:22.955Z,101133.59
2022-10-05T10:44:20.337Z,101136.59
2022-10-05T10:47:13.828Z,101132.69
2022-10-05T10:49:56.464Z,101130.88
2022-10-05T10:52:44.876Z,101125.91
2022-10-05T10:55:30.307Z,101129.84
2022-10-05T10:58:31.627Z,101141.63
2022-10-05T11:01:13.894Z,101136.66
2022-10-05T11:04:10.399Z,101130.88
2022-10-05T11:07:06.627Z,101129.50
2022-10-05T11:10:06.467Z,101128.19
2022-10-05T11:13:02.811Z,101123.34
2022-10-05T11:16:11.639Z,101123.88
2022-10-05T11:19:04.862Z,101116.88
2022-10-05T11:21:40.819Z,101120.41
2022-10-05T11:24:44.291Z,101106.88
2022-10-05T11:27:57.500Z,101101.88
2022-10-05T11:30:52.513Z,101092.75
2022-10-05T11:33:53.649Z,101094.81
2022-10-05T11:36:52.441Z,101092.34
2022-10-05T11:39:38.873Z,101083.53
2022-10-05T11:42:36.456Z,101077.72
2022-10-05T11:45:21.923Z,101082.97
2022-10-05T11:48:08.059Z,101075.75
2022-10-05T11:50:45.687Z,101081.81
2022-10-05T11:53:26.170Z,101075.63
2022-10-05T11:56:07.966Z,101067.44
2022-10-05T11:58:43.297Z,101060.88
2022-10-05T12:01:22.531Z,101060.44
2022-10-05T12:04:02.468Z,101067.59
2022-10-05T12:06:47.030Z,101062.25
2022-10-05T12:10:00.680Z,101062.56
2022-10-05T12:12:35.997Z,101048.28
2022-10-05T12:15:17.534Z,101051.59
2022-10-05T12:20:26.976Z,101046.66
2022-10-05T12:23:02.437Z,101049.41
2022-10-05T12:25:40.762Z,101053.06
2022-10-05T12:28:14.975Z,101053.09
2022-10-05T12:31:06.548Z,101044.34
2022-10-05T12:33:40.487Z,101042.13
2022-10-05T12:36:16.907Z,101045.44
2022-10-05T12:38:53.188Z,101044.72
2022-10-05T12:41:31.914Z,101035.28
2022-10-05T12:44:15.848Z,101035.34
2022-10-05T12:46:53.849Z,101021.41
2022-10-05T12:49:37.257Z,101023.16
2022-10-05T12:52:21.117Z,101021.78
2022-10-05T12:54:57.823Z,101011.38
2022-10-05T12:57:41.039Z,101011.69
2022-10-05T13:00:17.744Z,101012.94
2022-10-05T13:03:06.583Z,101002.47
2022-10-05T13:05:44.114Z,100999.56
2022-10-05T13:08:23.940Z,101006.91
2022-10-05T13:11:02.188Z,100999.25
2022-10-05T13:13:43.799Z,101001.59
2022-10-05T13:16:28.061Z,101000.47
2022-10-05T13:19:10.343Z,101010.22
2022-10-05T13:21:59.355Z,101004.94
2022-10-05T13:24:34.314Z,101010.88
2022-10-05T13:27:09.248Z,101002.22
2022-10-05T13:29:49.012Z,101011.84
2022-10-05T13:32:26.339Z,101005.25
2022-10-05T13:35:10.588Z,100996.34
2022-10-05T13:37:48.670Z,101000.69
2022-10-05T13:40:27.387Z,100998.22
2022-10-05T13:43:04.713Z,100999.09
2022-10-05T13:45:45.423Z,100994.09
2022-10-05T13:48:26.943Z,100987.44
2022-10-05T13:51:05.354Z,100985.44
2022-10-05T13:53:44.571Z,100987.16
2022-10-05T13:56:22.824Z,100982.00
2022-10-05T13:59:00.487Z,100993.94
2022-10-05T14:01:44.277Z,100975.13
2022-10-05T14:04:20.623Z,100980.53
2022-10-05T14:06:52.570Z,100970.59
2022-10-05T14:09:33.525Z,100977.22
2022-10-05T14:12:17.003Z,100975.81
2022-10-05T14:14:50.552Z,100979.16
2022-10-05T14:17:42.419Z,100973.59
2022-10-05T14:20:31.084Z,100974.38
2022-10-05T14:23:03.690Z,100970.56
2022-10-05T14:25:50.340Z,100955.44
2022-10-05T14:28:29.517Z,100958.09
2022-10-05T14:31:01.552Z,100973.50
2022-10-05T14:33:36.586Z,100959.81
2022-10-05T14:36:09.185Z,100957.69
2022-10-05T14:38:55.072Z,100961.03
2022-10-05T14:41:27.980Z,100951.06
2022-10-05T14:44:03.617Z,100947.53
2022-10-05T14:46:35.360Z,100947.94
2022-10-05T14:49:20.454Z,100950.31
2022-10-05T14:51:51.032Z,100944.72
2022-10-05T14:54:28.501Z,100939.56
2022-10-05T14:57:08.081Z,100933.75
2022-10-05T14:59:57.406Z,100934.59
2022-10-05T15:02:47.994Z,100927.97
2022-10-05T15:05:31.402Z,100928.78
2022-10-05T15:08:09.017Z,100934.56
2022-10-05T15:10:44.424Z,100927.53
2022-10-05T15:13:19.141Z,100915.94
2022-10-05T15:15:54.820Z,100916.16
2022-10-05T15:18:34.963Z,100918.41
2022-10-05T15:21:22.615Z,100920.50
2022-10-05T15:23:57.580Z,100923.66
2022-10-05T15:26:48.636Z,100922.19
2022-10-05T15:29:51.328Z,100921.78
2022-10-05T15:32:34.403Z,100920.09
2022-10-05T15:35:24.826Z,100930.25
2022-10-05T15:38:02.696Z,100927.66
2022-10-05T15:40:39.806Z,100922.91
2022-10-05T15:43:17.038Z,100923.94
2022-10-05T15:45:57.210Z,100933.25
2022-10-05T15:48:32.233Z,100926.44
2022-10-05T15:51:07.214Z,100921.03
2022-10-05T15:53:46.619Z,100932.03
2022-10-05T15:56:23.345Z,100927.09
2022-10-05T15:58:57.007Z,100924.59
2022-10-05T16:01:47.254Z,100923.34
2022-10-05T16:04:26.140Z,100925.81
2022-10-05T16:07:13.741Z,100922.91
2022-10-05T16:09:56.227Z,100925.22
2022-10-05T16:12:37.342Z,100920.66
2022-10-05T16:15:21.757Z,100918.19
2022-10-05T16:18:09.234Z,100917.59
2022-10-05T16:20:46.308Z,100913.25
2022-10-05T16:23:26.427Z,100917.78
2022-10-05T16:26:10.157Z,100916.72
2022-10-05T16:28:49.950Z,100914.03
2022-10-05T16:31:25.058Z,100911.16
2022-10-05T16:34:07.348Z,100904.53
2022-10-05T16:36:53.231Z,100910.13
2022-10-05T16:39:30.245Z,100909.13
2022-10-05T16:42:11.881Z,100902.50
2022-10-05T16:44:52.492Z,100908.09
2022-10-05T16:47:45.907Z,100907.88
2022-10-05T16:50:23.497Z,100904.56
2022-10-05T16:53:00.502Z,100905.59
2022-10-05T16:55:38.205Z,100903.56
2022-10-05T16:58:19.581Z,100907.28
2022-10-05T17:01:05.490Z,100906.47
2022-10-05T17:03:51.364Z,100909.56
2022-10-05T17:06:37.132Z,100917.84
2022-10-05T17:09:32.257Z,100911.25
2022-10-05T17:12:15.664Z,100907.31
2022-10-05T17:15:01.408Z,100912.47
2022-10-05T17:17:43.476Z,100917.88
2022-10-05T17:20:42.471Z,100919.09
2022-10-05T17:23:34.432Z,100922.22
2022-10-05T17:26:18.890Z,100925.34
2022-10-05T17:29:02.747Z,100923.25
2022-10-05T17:32:10.789Z,100926.97
2022-10-05T17:34:42.037Z,100925.94
2022-10-05T17:37:21.078Z,100923.47
2022-10-05T17:39:53.661Z,100926.97
2022-10-05T17:42:48.124Z,100924.50
2022-10-05T17:45:48.064Z,100919.34
2022-10-05T17:48:44.560Z,100923.28
2022-10-05T17:52:08.192Z,100922.25
2022-10-05T17:55:31.207Z,100927.19
2022-10-05T17:58:03.652Z,100938.59
2022-10-05T18:00:43.926Z,100934.88
2022-10-05T18:03:38.957Z,100927.44
2022-10-05T18:06:44.740Z,100924.31
2022-10-05T18:09:20.981Z,100918.72
2022-10-05T18:12:11.521Z,100920.34
2022-10-05T18:14:59.299Z,100913.78
2022-10-05T18:17:42.127Z,100920.34
2022-10-05T18:20:22.435Z,100916.63
2022-10-05T18:22:53.778Z,100914.78
2022-10-05T18:25:29.483Z,100912.09
2022-10-05T18:28:11.537Z,100916.22
2022-10-05T18:30:59.169Z,100917.06
2022-10-05T18:33:51.961Z,100924.72
2022-10-05T18:36:39.975Z,100917.06
2022-10-05T18:39:23.388Z,100917.28
2022-10-05T18:42:04.557Z,100916.66
2022-10-05T18:44:42.203Z,100917.28
2022-10-05T18:47:19.924Z,100915.44
2022-10-05T18:50:06.137Z,100917.66
2022-10-05T18:52:55.160Z,100911.06
2022-10-05T18:55:34.641Z,100912.28
2022-10-05T18:58:28.738Z,100919.53
2022-10-05T19:01:21.374Z,100921.59
2022-10-05T19:04:12.677Z,100921.16
2022-10-05T19:06:52.059Z,100923.22
2022-10-05T19:09:41.355Z,100919.09
2022-10-05T19:12:20.874Z,100925.50
2022-10-05T19:15:00.800Z,100921.56
2022-10-05T19:17:46.169Z,100921.56
2022-10-05T19:20:23.785Z,100922.59
2022-10-05T19:23:12.488Z,100921.38
2022-10-05T19:25:51.298Z,100930.44
2022-10-05T19:28:29.372Z,100929.81
2022-10-05T19:31:17.977Z,100927.13
2022-10-05T19:34:02.126Z,100936.84
2022-10-05T19:36:46.815Z,100939.31
2022-10-05T19:39:24.210Z,100944.91
2022-10-05T19:42:17.398Z,100953.78
2022-10-05T19:44:56.043Z,100954.97
2022-10-05T19:47:41.110Z,100949.19
2022-10-05T19:50:24.590Z,100961.16
2022-10-05T19:53:02.433Z,100964.66
2022-10-05T19:55:39.695Z,100955.78
2022-10-05T19:58:23.398Z,100968.78
2022-10-05T20:01:01.216Z,100965.06
2022-10-05T20:03:32.461Z,100969.41
2022-10-05T20:06:04.158Z,100962.19
2022-10-05T20:08:40.622Z,100977.25
2022-10-05T20:11:14.160Z,100974.38
2022-10-05T20:13:48.392Z,100982.41
2022-10-05T20:19:54.822Z,100982.19
2022-10-05T20:22:32.953Z,100980.97
2022-10-05T20:25:05.773Z,100989.84
2022-10-05T20:27:46.628Z,100994.59
2022-10-05T20:30:21.189Z,101007.38
2022-10-05T20:32:51.035Z,101008.22
2022-10-05T20:35:22.459Z,101012.13
2022-10-05T20:37:52.700Z,101013.78
2022-10-05T20:40:23.065Z,101013.34
2022-10-05T20:42:52.888Z,101019.75
2022-10-05T20:45:25.498Z,101015.19
2022-10-05T20:47:55.427Z,101025.50
2022-10-05T20:50:25.180Z,101023.19
2022-10-05T20:52:55.047Z,101038.47
2022-10-05T20:55:29.202Z,101032.06
2022-10-05T20:57:59.080Z,101032.66
2022-10-05T21:00:52.094Z,101050.00
2022-10-05T21:03:22.179Z,101038.44
2022-10-05T21:05:52.067Z,101036.59
2022-10-05T21:08:21.810Z,101044.00
2022-10-05T21:10:51.568Z,101045.66
2022-10-05T21:13:21.294Z,101048.31
2022-10-05T21:15:53.833Z,101046.84
2022-10-05T21:18:23.651Z,101048.88
2022-10-05T21:20:53.435Z,101052.22
2022-10-05T21:23:23.143Z,101051.19
2022-10-05T21:25:53.115Z,101043.06
2022-10-05T21:28:22.906Z,101050.28
2022-10-05T21:30:55.476Z,101055.66
2022-10-05T21:33:25.564Z,101059.78
2022-10-05T21:35:55.714Z,101053.25
2022-10-05T21:38:25.993Z,101055.47
2022-10-05T21:40:56.046Z,101061.66
2022-10-05T21:43:26.389Z,101066.81
2022-10-05T21:45:59.205Z,101067.41
2022-10-05T21:48:29.393Z,101065.78
2022-10-05T21:51:01.052Z,101067.00
2022-10-05T21:53:34.713Z,101075.47
2022-10-05T21:56:07.288Z,101082.03
2022-10-05T21:58:37.726Z,101082.91
2022-10-05T22:01:10.162Z,101081.88
2022-10-05T22:03:39.930Z,101081.44
2022-10-05T22:06:10.635Z,101079.78
2022-10-05T22:08:40.403Z,101082.47
2022-10-05T22:11:14.945Z,101079.34
2022-10-05T22:13:46.589Z,101083.50
2022-10-05T22:16:20.371Z,101080.19
2022-10-05T22:18:50.626Z,101081.44
2022-10-05T22:21:21.136Z,101091.75
2022-10-05T22:23:51.255Z,101082.25
2022-10-05T22:26:23.485Z,101078.13
2022-10-05T22:28:56.419Z,101082.91
2022-10-05T22:31:28.932Z,101092.59
2022-10-05T22:33:58.744Z,101093.28
2022-10-05T22:36:28.913Z,101096.59
2022-10-05T22:38:58.640Z,101102.34
2022-10-05T22:41:28.520Z,101090.41
2022-10-05T22:43:58.288Z,101096.78
2022-10-05T22:46:30.787Z,101099.25
2022-10-05T22:51:44.445Z,101104.81
2022-10-05T22:54:14.189Z,101101.50
2022-10-05T22:56:44.128Z,101100.50
2022-10-05T22:59:13.944Z,101104.19
2022-10-05T23:01:46.447Z,101105.03
2022-10-05T23:04:16.252Z,101117.00
2022-10-05T23:06:45.973Z,101111.25
2022-10-05T23:09:15.711Z,101114.13
2022-10-05T23:11:46.696Z,101124.88
2022-10-05T23:14:16.891Z,101123.22
2022-10-05T23:16:50.222Z,101118.59
2022-10-05T23:19:20.007Z,101121.47
2022-10-05T23:21:49.795Z,101125.19
2022-10-05T23:24:19.511Z,101121.69
2022-10-05T23:26:49.357Z,101125.97
2022-10-05T23:29:19.185Z,101119.38
2022-10-05T23:31:51.500Z,101125.53
2022-10-05T23:34:21.269Z,101121.19
2022-10-05T23:36:51.052Z,101127.38
2022-10-05T23:39:20.937Z,101129.47
2022-10-05T23:41:50.833Z,101128.03
2022-10-05T23:44:20.620Z,101131.69
2022-10-05T23:46:52.955Z,101131.69
2022-10-05T23:49:23.176Z,101146.50
2022-10-05T23:51:52.893Z,101139.72
2022-10-05T23:54:22.605Z,101147.38
2022-10-05T23:56:52.358Z,101150.69
2022-10-05T23:59:22.205Z,101146.94
